Time;durP1;ratioP1;P1;durP2;ratioP2;P2;SDS_P1;SDS_P2;PMS_P1;PMS_P2;Temp;Humidity;BMP_temperature;BMP_pressure;BME280_temperature;BME280_humidity;BME280_pressure;Samples;Min_cycle;Max_cycle;Signal;HPM_P1;HPM_P2
2021/03/20 00:02:03;;;;;;;6.30;5.13;;;;;;;-0.67;87.66;151200.34;5007598;28;20474;-96
2021/03/20 00:04:49;;;;;;;7.57;6.33;;;;;;;-0.69;87.61;151195.25;5011119;28;20465;-94
2021/03/20 00:07:35;;;;;;;7.43;6.20;;;;;;;-0.68;86.32;151199.06;5025513;28;20433;-95
2021/03/20 00:10:23;;;;;;;6.38;5.10;;;;;;;-0.67;87.26;151200.34;5026782;28;20416;-95
2021/03/20 00:13:09;;;;;;;9.07;5.53;;;;;;;-0.67;86.22;151200.34;5025833;28;20252;-95
2021/03/20 00:15:56;;;;;;;8.87;5.83;;;;;;;-0.68;87.58;151199.06;5026157;28;20436;-95
2021/03/20 00:18:44;;;;;;;8.97;5.80;;;;;;;-0.69;86.41;151195.25;5022259;28;20813;-94
2021/03/20 00:21:29;;;;;;;6.47;5.30;;;;;;;-0.67;88.00;151200.34;5011522;28;20473;-95
2021/03/20 00:24:14;;;;;;;8.27;5.67;;;;;;;-0.71;88.29;151191.34;5007866;28;20399;-95
2021/03/20 00:27:00;;;;;;;8.17;5.90;;;;;;;-0.71;88.33;151190.06;5006242;28;20443;-94
2021/03/20 00:29:45;;;;;;;7.57;5.47;;;;;;;-0.75;87.63;151181.13;5007205;28;20395;-94
2021/03/20 00:32:32;;;;;;;7.63;5.40;;;;;;;-0.75;88.77;151179.84;5006108;28;20415;-93
2021/03/20 00:35:20;;;;;;;11.10;5.60;;;;;;;-0.75;88.57;151179.84;5005540;28;20427;-93
2021/03/20 00:38:05;;;;;;;9.23;6.30;;;;;;;-0.77;89.60;151175.97;5004365;28;20492;-94
2021/03/20 00:40:51;;;;;;;8.00;5.17;;;;;;;-0.77;89.60;151174.72;5003159;28;20970;-94
2021/03/20 00:43:37;;;;;;;6.20;5.10;;;;;;;-0.77;88.79;151174.72;5003410;28;20455;-94
2021/03/20 00:46:23;;;;;;;7.47;6.07;;;;;;;-0.79;88.97;151169.56;5003448;28;20425;-94
2021/03/20 00:49:09;;;;;;;8.43;5.67;;;;;;;-0.81;89.54;151164.44;5002960;28;20404;-94
2021/03/20 00:51:55;;;;;;;6.93;5.70;;;;;;;-0.82;89.41;151161.91;5003193;28;20436;-94
2021/03/20 00:54:41;;;;;;;7.15;4.70;;;;;;;-0.81;90.01;151164.44;5003015;28;20238;-94
2021/03/20 00:57:26;;;;;;;5.70;4.53;;;;;;;-0.82;90.40;151161.91;5003346;28;20578;-94
2021/03/20 01:00:14;;;;;;;8.80;5.23;;;;;;;-0.79;90.13;151169.56;5003143;28;20403;-94
2021/03/20 01:03:00;;;;;;;9.75;5.13;;;;;;;-0.76;90.71;151177.25;5016531;28;20936;-93
2021/03/20 01:05:46;;;;;;;8.07;5.07;;;;;;;-0.75;90.25;151181.13;4996328;28;20238;-93
2021/03/20 01:08:32;;;;;;;6.30;4.87;;;;;;;-0.70;90.79;151192.66;4996702;28;20452;-94
2021/03/20 01:11:18;;;;;;;7.53;5.27;;;;;;;-0.71;91.01;151190.06;4997050;28;20425;-93
2021/03/20 01:14:03;;;;;;;6.17;4.87;;;;;;;-0.68;90.66;151199.06;4996788;28;20408;-93
2021/03/20 01:16:49;;;;;;;7.27;6.17;;;;;;;-0.67;91.05;151201.66;4996597;28;20824;-94
2021/03/20 01:19:34;;;;;;;8.07;5.90;;;;;;;-0.62;91.15;151213.19;4996806;28;20404;-94
2021/03/20 01:22:20;;;;;;;7.87;5.23;;;;;;;-0.61;92.00;151217.00;4996370;28;20491;-93
2021/03/20 01:25:07;;;;;;;5.53;4.60;;;;;;;-0.63;90.66;151211.88;4996588;28;20396;-94
2021/03/20 01:27:54;;;;;;;8.80;5.90;;;;;;;-0.64;89.76;151208.06;4996030;28;20476;-93
2021/03/20 01:30:41;;;;;;;7.60;5.60;;;;;;;-0.64;90.83;151208.06;4996431;28;20399;-94
2021/03/20 01:33:27;;;;;;;7.60;5.80;;;;;;;-0.63;91.00;151210.59;4996591;28;20402;-93
2021/03/20 01:36:12;;;;;;;8.15;5.28;;;;;;;-0.64;90.39;151209.28;4996353;28;20420;-94
2021/03/20 01:38:58;;;;;;;7.75;5.57;;;;;;;-0.63;90.65;151210.59;4995941;28;20274;-94
2021/03/20 01:41:44;;;;;;;10.60;5.90;;;;;;;-0.62;90.91;151213.19;4995839;28;20321;-94
2021/03/20 01:44:29;;;;;;;8.10;5.10;;;;;;;-0.61;92.24;151215.75;4995709;28;20406;-94
2021/03/20 01:47:17;;;;;;;8.90;6.23;;;;;;;-0.60;91.71;151218.28;4995859;28;20435;-94
2021/03/20 01:50:04;;;;;;;8.40;5.97;;;;;;;-0.59;91.38;151220.88;4996312;28;20398;-93
2021/03/20 01:52:54;;;;;;;7.00;5.23;;;;;;;-0.59;93.45;151220.88;4995781;28;20488;-93
2021/03/20 01:55:40;;;;;;;7.53;6.00;;;;;;;-0.56;97.13;151228.59;4995678;28;20413;-93
2021/03/20 01:58:27;;;;;;;8.93;5.47;;;;;;;-0.60;93.31;151218.28;4995475;28;20196;-94
2021/03/20 02:01:14;;;;;;;5.93;5.13;;;;;;;-0.55;95.96;151231.13;4995495;28;20457;-94
2021/03/20 02:04:00;;;;;;;8.60;6.23;;;;;;;-0.57;93.63;151224.69;4995943;28;20404;-94
2021/03/20 02:06:46;;;;;;;8.23;5.53;;;;;;;-0.58;93.17;151223.41;5001543;28;20518;-93
2021/03/20 02:09:31;;;;;;;7.37;5.57;;;;;;;-0.56;94.82;151228.59;5015371;28;20459;-94
2021/03/20 02:12:21;;;;;;;8.57;5.40;;;;;;;-0.59;93.61;151220.88;5001461;28;20938;-94
2021/03/20 02:15:13;;;;;;;6.73;5.40;;;;;;;-0.52;97.39;151238.81;5001270;28;20917;-94
2021/03/20 02:18:06;;;;;;;6.70;6.00;;;;;;;-0.53;94.20;151236.22;5015052;28;20896;-93
2021/03/20 02:21:15;;;;;;;6.50;5.77;;;;;;;-0.54;94.68;151233.69;5001215;28;20797;-94
2021/03/20 02:24:43;;;;;;;9.50;6.05;;;;;;;-0.52;94.35;151238.81;5001338;28;20466;-93
2021/03/20 02:27:57;;;;;;;8.77;5.72;;;;;;;-0.50;96.29;151243.94;5001038;28;20257;-94
2021/03/20 02:31:24;;;;;;;6.77;5.07;;;;;;;-0.46;98.03;151254.22;5015140;28;20222;-93
2021/03/20 02:34:18;;;;;;;7.80;6.40;;;;;;;-0.49;96.91;151245.22;5015051;28;20443;-94
2021/03/20 02:37:06;;;;;;;10.37;6.53;;;;;;;-0.49;96.28;151245.22;5000246;28;20496;-93
2021/03/20 02:39:57;;;;;;;9.40;5.70;;;;;;;-0.51;95.51;151241.41;5000695;28;20397;-94
2021/03/20 02:42:46;;;;;;;8.80;7.60;;;;;;;-0.49;95.11;151245.22;5000943;28;20430;-93
2021/03/20 02:45:37;;;;;;;8.03;6.27;;;;;;;-0.53;95.47;151235.00;5000926;28;20416;-93
2021/03/20 02:48:26;;;;;;;8.60;6.73;;;;;;;-0.57;96.55;151226.00;5000977;28;20956;-93
2021/03/20 02:51:18;;;;;;;9.00;6.90;;;;;;;-0.54;96.53;151233.69;5000943;28;20469;-94
2021/03/20 02:54:06;;;;;;;12.80;6.32;;;;;;;-0.59;96.55;151219.59;5000958;28;20412;-93
2021/03/20 02:56:56;;;;;;;7.67;6.33;;;;;;;-0.54;99.37;151233.69;5002053;28;20237;-93
2021/03/20 02:59:51;;;;;;;7.50;6.23;;;;;;;-0.63;95.75;151210.59;5019405;28;20444;-93
2021/03/20 03:02:37;;;;;;;9.10;6.60;;;;;;;-0.67;95.39;151200.34;5022800;28;20458;-93
2021/03/20 03:05:26;;;;;;;9.30;7.00;;;;;;;-0.65;96.62;151206.75;5010021;28;20460;-94
2021/03/20 03:08:18;;;;;;;9.80;6.90;;;;;;;-0.63;97.47;151211.88;4995329;28;20400;-94
2021/03/20 03:11:07;;;;;;;11.17;7.50;;;;;;;-0.61;99.36;151217.00;4994979;28;20445;-94
2021/03/20 03:13:56;;;;;;;9.87;6.63;;;;;;;-0.55;99.98;151229.81;4994977;28;20397;-95
2021/03/20 03:16:45;;;;;;;9.90;6.83;;;;;;;-0.54;100.00;151233.69;4994935;28;20428;-93
2021/03/20 03:19:33;;;;;;;8.83;6.77;;;;;;;-0.57;98.16;151224.69;4995049;28;20506;-93
2021/03/20 03:22:24;;;;;;;7.47;6.47;;;;;;;-0.57;96.85;151226.00;4994884;28;20520;-93
2021/03/20 03:25:13;;;;;;;8.80;6.63;;;;;;;-0.67;96.95;151200.34;4994396;28;20428;-93
2021/03/20 03:28:01;;;;;;;9.47;7.17;;;;;;;-0.81;97.59;151164.44;4995172;28;20512;-92
2021/03/20 03:30:46;;;;;;;10.37;6.87;;;;;;;-0.88;98.58;151147.78;4994789;28;20456;-94
2021/03/20 03:33:35;;;;;;;12.50;9.07;;;;;;;-0.90;99.30;151141.38;4995002;28;20409;-93
2021/03/20 03:36:21;;;;;;;11.07;7.60;;;;;;;-0.91;99.63;151138.78;4994991;28;20522;-93
2021/03/20 03:39:13;;;;;;;11.13;6.90;;;;;;;-0.98;100.00;151120.88;4994814;28;20814;-92
2021/03/20 03:42:01;;;;;;;10.40;7.30;;;;;;;-1.01;100.00;151114.47;4994648;28;20669;-93
2021/03/20 03:44:49;;;;;;;12.23;8.30;;;;;;;-1.03;100.00;151108.06;4995045;28;20405;-93
2021/03/20 03:47:34;;;;;;;13.07;8.90;;;;;;;-1.06;100.00;151101.59;4994651;28;20443;-93
2021/03/20 03:50:23;;;;;;;12.30;8.33;;;;;;;-1.06;100.00;151101.59;4997008;28;20470;-93
2021/03/20 03:53:10;;;;;;;11.13;7.93;;;;;;;-1.02;100.00;151110.59;4998135;28;20433;-93
2021/03/20 03:55:58;;;;;;;8.23;7.30;;;;;;;-0.99;100.00;151118.28;4998106;28;20454;-93
2021/03/20 03:58:53;;;;;;;10.83;7.90;;;;;;;-1.02;100.00;151110.59;4997905;28;20433;-93
2021/03/20 04:01:44;;;;;;;11.27;8.30;;;;;;;-1.02;100.00;151110.59;4997562;28;20863;-92
2021/03/20 04:04:44;;;;;;;10.80;8.40;;;;;;;-0.97;100.00;151124.69;5002350;28;21031;-93
2021/03/20 04:07:40;;;;;;;15.43;9.27;;;;;;;-0.96;100.00;151127.28;5003651;28;20410;-93
2021/03/20 04:10:30;;;;;;;9.20;7.37;;;;;;;-0.97;100.00;151123.41;5003261;28;20504;-93
2021/03/20 04:13:23;;;;;;;12.40;8.93;;;;;;;-0.99;100.00;151118.28;5003478;28;20430;-92
2021/03/20 04:16:12;;;;;;;12.27;8.40;;;;;;;-0.97;100.00;151123.41;5003312;28;20549;-92
2021/03/20 04:19:03;;;;;;;10.93;7.80;;;;;;;-1.01;100.00;151113.16;5003372;28;20819;-93
2021/03/20 04:21:52;;;;;;;11.47;8.10;;;;;;;-1.02;100.00;151110.59;5003189;28;20530;-92
2021/03/20 04:24:35;;;;;;;9.97;8.00;;;;;;;-1.01;100.00;151114.47;4985368;28;20451;-92
2021/03/20 04:27:13;;;;;;;10.40;8.10;;;;;;;-1.03;99.15;151109.28;4984948;28;20530;-92
2021/03/20 04:29:51;;;;;;;11.43;8.00;;;;;;;-1.01;99.41;151113.16;4985541;28;20442;-92
2021/03/20 04:32:32;;;;;;;8.73;6.63;;;;;;;-1.04;99.76;151106.75;4987585;28;20430;-92
2021/03/20 04:35:13;;;;;;;7.70;6.90;;;;;;;-1.06;99.33;151100.34;4985172;28;20973;-92
2021/03/20 04:37:51;;;;;;;10.77;7.40;;;;;;;-1.07;98.69;151097.78;4984924;28;20460;-92
2021/03/20 04:40:31;;;;;;;10.70;7.50;;;;;;;-1.08;98.85;151095.19;4991606;28;20202;-91
2021/03/20 04:43:07;;;;;;;12.77;9.07;;;;;;;-1.11;99.22;151088.78;4975154;28;20443;-91
2021/03/20 04:45:45;;;;;;;10.13;7.40;;;;;;;-1.09;100.00;151092.66;4992557;28;20438;-92
2021/03/20 04:48:25;;;;;;;9.43;7.53;;;;;;;-1.06;100.00;151100.34;4988582;28;20441;-90
2021/03/20 04:51:03;;;;;;;11.30;7.93;;;;;;;-1.07;100.00;151097.78;4986675;28;20433;-92
2021/03/20 04:53:39;;;;;;;10.83;7.20;;;;;;;-1.07;100.00;151097.78;4984589;28;20449;-91
2021/03/20 04:56:19;;;;;;;10.63;7.50;;;;;;;-1.09;100.00;151092.66;4984489;28;20478;-92
2021/03/20 04:58:56;;;;;;;11.20;8.20;;;;;;;-1.12;100.00;151084.97;4984398;28;20454;-92
2021/03/20 05:01:36;;;;;;;9.10;7.72;;;;;;;-1.10;100.00;151091.38;4998584;28;20473;-92
2021/03/20 05:04:19;;;;;;;11.80;7.87;;;;;;;-1.17;100.00;151073.44;4983918;28;20213;-92
2021/03/20 05:06:58;;;;;;;9.63;6.90;;;;;;;-1.18;100.00;151069.56;4984199;28;20467;-92
2021/03/20 05:09:34;;;;;;;11.68;7.75;;;;;;;-1.22;100.00;151061.88;4984287;28;20764;-92
2021/03/20 05:12:15;;;;;;;9.90;7.10;;;;;;;-1.23;100.00;151059.34;4984128;28;20203;-92
2021/03/20 05:14:53;;;;;;;10.03;7.70;;;;;;;-1.25;100.00;151054.22;4984116;28;20455;-92
2021/03/20 05:17:28;;;;;;;12.07;7.47;;;;;;;-1.30;100.00;151040.13;4999254;28;20954;-93
2021/03/20 05:20:06;;;;;;;10.10;7.30;;;;;;;-1.27;100.00;151047.75;4989435;28;20449;-92
2021/03/20 05:22:41;;;;;;;8.70;7.07;;;;;;;-1.32;100.00;151036.22;4995651;28;20473;-93
2021/03/20 05:25:21;;;;;;;9.27;7.10;;;;;;;-1.32;100.00;151036.22;4979510;28;20436;-92
2021/03/20 05:27:56;;;;;;;9.43;6.93;;;;;;;-1.31;100.00;151038.81;5004214;28;20441;-93
2021/03/20 05:30:32;;;;;;;9.77;7.33;;;;;;;-1.30;100.00;151041.34;4984226;28;20538;-93
2021/03/20 05:33:07;;;;;;;10.02;6.65;;;;;;;-1.30;100.00;151041.34;4998605;28;20447;-92
2021/03/20 05:35:43;;;;;;;10.73;6.60;;;;;;;-1.29;100.00;151042.66;4998900;28;20194;-92
2021/03/20 05:38:19;;;;;;;8.77;7.33;;;;;;;-1.33;100.00;151033.69;4983771;28;20457;-92
2021/03/20 05:40:59;;;;;;;8.70;6.70;;;;;;;-1.32;100.00;151036.22;4998641;28;20932;-92
2021/03/20 05:43:40;;;;;;;10.87;6.93;;;;;;;-1.30;100.00;151041.34;5025384;28;20450;-92
2021/03/20 05:46:24;;;;;;;10.60;7.43;;;;;;;-1.29;100.00;151043.94;5001315;28;20429;-92
2021/03/20 05:49:20;;;;;;;9.27;7.00;;;;;;;-1.29;100.00;151043.94;5007519;28;20201;-92
2021/03/20 05:52:20;;;;;;;9.10;7.40;;;;;;;-1.32;100.00;151036.22;5000084;28;20443;-92
2021/03/20 05:55:13;;;;;;;7.90;6.20;;;;;;;-1.37;100.00;151023.44;4983338;28;20455;-92
2021/03/20 05:57:54;;;;;;;9.83;7.47;;;;;;;-1.37;100.00;151022.13;4983257;28;20441;-92
2021/03/20 06:00:38;;;;;;;9.77;7.70;;;;;;;-1.40;100.00;151015.72;5015622;28;20438;-92
2021/03/20 06:03:41;;;;;;;10.13;6.67;;;;;;;-1.35;100.00;151028.53;4982054;28;20596;-92
2021/03/20 06:06:32;;;;;;;8.67;6.60;;;;;;;-1.30;100.00;151040.13;4997485;28;20516;-92
2021/03/20 06:09:15;;;;;;;11.93;6.97;;;;;;;-1.28;100.00;151046.50;5014805;28;20462;-92
2021/03/20 06:12:07;;;;;;;8.37;6.33;;;;;;;-1.31;100.00;151038.81;4981555;28;20428;-92
2021/03/20 06:15:09;;;;;;;9.13;7.00;;;;;;;-1.35;100.00;151028.53;4978470;28;20830;-92
2021/03/20 06:18:07;;;;;;;9.67;6.80;;;;;;;-1.34;100.00;151029.84;4995101;28;20469;-92
2021/03/20 06:20:49;;;;;;;9.53;7.10;;;;;;;-1.27;100.00;151049.06;4967228;28;20587;-91
2021/03/20 06:23:57;;;;;;;8.50;6.33;;;;;;;-1.20;100.00;151064.44;4997544;28;20453;-91
2021/03/20 06:26:34;;;;;;;12.23;6.70;;;;;;;-1.27;98.88;151047.75;4984670;28;20451;-91
2021/03/20 06:29:15;;;;;;;10.33;7.73;;;;;;;-1.19;99.61;151067.03;5014329;28;20488;-91
2021/03/20 06:31:52;;;;;;;9.27;6.40;;;;;;;-1.28;97.63;151045.22;4982324;28;20913;-92
2021/03/20 06:34:31;;;;;;;7.38;5.47;;;;;;;-1.25;97.88;151054.22;4981874;28;20432;-91
2021/03/20 06:37:14;;;;;;;8.50;6.03;;;;;;;-1.22;97.59;151060.63;4993686;28;20299;-91
2021/03/20 06:39:59;;;;;;;11.23;6.33;;;;;;;-1.17;97.15;151072.13;4996600;28;20457;-91
2021/03/20 06:42:36;;;;;;;9.83;6.50;;;;;;;-1.29;96.60;151043.94;4975314;28;21157;-91
2021/03/20 06:45:18;;;;;;;7.30;6.13;;;;;;;-1.27;95.80;151049.06;4992713;28;20438;-90
2021/03/20 06:47:55;;;;;;;8.53;5.43;;;;;;;-1.29;95.41;151042.66;4977931;28;20443;-93
2021/03/20 06:50:33;;;;;;;6.80;5.40;;;;;;;-1.23;93.90;151059.34;4963679;28;20513;-92
2021/03/20 06:53:10;;;;;;;8.27;5.20;;;;;;;-1.20;93.74;151064.44;4978558;28;20438;-92
2021/03/20 06:55:47;;;;;;;7.72;5.03;;;;;;;-1.15;93.32;151077.25;4979228;28;20433;-93
2021/03/20 06:58:27;;;;;;;6.73;5.33;;;;;;;-1.15;92.57;151077.25;4995019;28;20208;-93
2021/03/20 07:01:06;;;;;;;6.93;5.10;;;;;;;-1.06;92.76;151101.59;4982233;28;20476;-93
2021/03/20 07:04:10;;;;;;;5.97;5.28;;;;;;;-1.14;91.49;151079.84;4983612;28;20555;-93
2021/03/20 07:07:07;;;;;;;7.53;5.50;;;;;;;-1.06;91.41;151101.59;4973078;28;20208;-94
2021/03/20 07:09:44;;;;;;;7.00;4.63;;;;;;;-1.02;90.36;151110.59;4982993;28;20450;-95
2021/03/20 07:12:25;;;;;;;6.40;4.60;;;;;;;-0.89;90.17;151145.22;4984943;28;20435;-94
2021/03/20 07:15:20;;;;;;;7.85;5.43;;;;;;;-0.76;88.37;151178.53;4985169;28;20457;-95
2021/03/20 07:18:15;;;;;;;6.43;4.53;;;;;;;-0.77;85.25;151175.97;4983156;28;20210;-81
2021/03/20 07:20:51;;;;;;;5.93;4.30;;;;;;;-0.72;85.09;151188.81;4995769;28;20441;-80
2021/03/20 07:23:28;;;;;;;5.73;4.03;;;;;;;-0.85;83.43;151155.44;5002237;28;20444;-80
2021/03/20 07:26:07;;;;;;;5.47;3.77;;;;;;;-0.86;84.54;151151.63;4980012;28;20452;-80
2021/03/20 07:28:49;;;;;;;6.00;3.70;;;;;;;-0.90;83.73;151141.38;4996684;28;20966;-80
2021/03/20 07:31:25;;;;;;;4.93;3.80;;;;;;;-0.87;84.77;151149.03;4991747;28;20442;-80
2021/03/20 07:34:15;;;;;;;5.20;3.90;;;;;;;-0.82;83.78;151163.16;4999375;28;20472;-80
2021/03/20 07:37:03;;;;;;;5.07;3.47;;;;;;;-0.77;83.75;151174.72;4984610;28;20457;-80
2021/03/20 07:39:41;;;;;;;6.10;4.10;;;;;;;-0.76;82.54;151177.25;5001030;28;20483;-80
2021/03/20 07:42:29;;;;;;;6.47;4.20;;;;;;;-0.71;82.03;151191.34;4984179;28;20465;-80
2021/03/20 07:45:10;;;;;;;4.53;3.33;;;;;;;-0.88;81.81;151147.78;4984788;28;20455;-81
2021/03/20 07:48:00;;;;;;;7.13;4.30;;;;;;;-0.85;81.50;151155.44;4985870;28;20446;-81
2021/03/20 07:50:41;;;;;;;4.70;3.40;;;;;;;-1.02;81.33;151110.59;4989657;28;20556;-81
2021/03/20 07:53:18;;;;;;;8.38;3.88;;;;;;;-1.03;81.82;151108.06;5001822;28;20440;-80
2021/03/20 07:55:57;;;;;;;4.70;4.00;;;;;;;-0.91;82.15;151140.09;4981914;28;20693;-80
2021/03/20 07:58:37;;;;;;;3.67;3.05;;;;;;;-0.77;80.44;151174.72;4986916;28;20511;-80
2021/03/20 08:01:15;;;;;;;6.20;4.27;;;;;;;-0.83;81.08;151160.59;4987790;28;20334;-81
2021/03/20 08:03:56;;;;;;;4.60;3.60;;;;;;;-0.79;81.92;151169.56;4986441;28;21029;-80
2021/03/20 08:06:47;;;;;;;6.50;4.77;;;;;;;-0.58;80.68;151222.16;4982593;28;20468;-80
2021/03/20 08:09:27;;;;;;;5.28;4.43;;;;;;;-0.54;78.49;151233.69;5016735;28;20460;-80
2021/03/20 08:12:09;;;;;;;6.40;3.97;;;;;;;-0.62;78.94;151213.19;4992708;28;20293;-80
2021/03/20 08:14:48;;;;;;;5.00;3.93;;;;;;;-0.63;78.05;151211.88;4969386;28;20455;-81
2021/03/20 08:17:23;;;;;;;6.22;4.00;;;;;;;-0.66;78.22;151202.88;4980399;28;20438;-81
2021/03/20 08:20:04;;;;;;;5.57;3.73;;;;;;;-0.66;75.98;151202.88;4964113;28;20203;-81
2021/03/20 08:22:58;;;;;;;6.10;3.80;;;;;;;-0.70;75.81;151192.66;4981765;28;20463;-94
2021/03/20 08:25:44;;;;;;;5.70;4.50;;;;;;;-0.72;75.72;151187.53;4965069;28;20480;-93
2021/03/20 08:28:38;;;;;;;9.63;4.50;;;;;;;-0.61;77.12;151215.75;4979573;28;20450;-82
2021/03/20 08:31:22;;;;;;;5.77;4.30;;;;;;;-0.64;76.67;151208.06;4979557;28;20448;-90
2021/03/20 08:34:18;;;;;;;4.43;4.03;;;;;;;-0.74;76.06;151182.38;5003589;28;20429;-92
2021/03/20 08:37:17;;;;;;;4.67;4.23;;;;;;;-0.79;73.68;151169.56;4984223;28;20453;-91
2021/03/20 08:40:08;;;;;;;6.57;3.60;;;;;;;-0.78;73.84;151173.44;4967417;28;21179;-91
2021/03/20 08:42:57;;;;;;;5.10;4.03;;;;;;;-0.87;72.70;151150.31;4984034;28;20462;-92
2021/03/20 08:45:36;;;;;;;5.70;4.50;;;;;;;-0.91;74.22;151140.09;4984889;28;20452;-92
2021/03/20 08:48:20;;;;;;;4.63;3.70;;;;;;;-0.65;72.87;151205.47;4999273;28;20449;-91
2021/03/20 08:51:08;;;;;;;4.47;3.60;;;;;;;-0.50;72.13;151243.94;4998664;28;20454;-91
2021/03/20 08:53:56;;;;;;;5.93;3.55;;;;;;;-0.49;70.61;151245.22;4971937;28;20871;-90
2021/03/20 08:56:44;;;;;;;3.40;2.80;;;;;;;-0.54;69.12;151232.41;4999271;28;20203;-91
2021/03/20 08:59:23;;;;;;;5.60;3.40;;;;;;;-0.64;67.02;151208.06;4997205;28;20490;-91
2021/03/20 09:02:00;;;;;;;5.17;3.57;;;;;;;-0.64;65.98;151208.06;4964424;28;20594;-92
2021/03/20 09:04:36;;;;;;;4.23;3.20;;;;;;;-0.43;64.61;151261.94;4979430;28;20480;-91
2021/03/20 09:07:19;;;;;;;4.90;3.30;;;;;;;-0.22;62.64;151315.81;4964624;28;20441;-91
2021/03/20 09:09:59;;;;;;;12.93;6.43;;;;;;;-0.07;64.25;151354.28;4979621;28;20777;-91
2021/03/20 09:12:37;;;;;;;5.63;4.30;;;;;;;0.22;62.82;151426.13;4979356;28;20437;-92
2021/03/20 09:15:20;;;;;;;4.90;3.30;;;;;;;0.37;60.75;151464.66;4995699;28;20445;-92
2021/03/20 09:17:57;;;;;;;4.97;2.90;;;;;;;0.53;60.86;151505.75;4996742;28;20435;-91
2021/03/20 09:20:44;;;;;;;5.07;3.13;;;;;;;0.45;58.42;151485.22;4981227;28;20929;-91
2021/03/20 09:23:26;;;;;;;6.00;4.37;;;;;;;0.38;59.09;151467.19;4997108;28;20418;-91
2021/03/20 09:26:08;;;;;;;7.00;3.37;;;;;;;0.86;59.45;151590.47;4995931;28;20483;-92
2021/03/20 09:29:06;;;;;;;3.03;2.73;;;;;;;0.72;59.33;151554.50;4995612;28;20497;-91
2021/03/20 09:32:01;;;;;;;3.60;2.70;;;;;;;0.74;58.47;151559.66;4964012;28;20944;-91
2021/03/20 09:34:42;;;;;;;3.97;3.57;;;;;;;0.56;60.00;151513.41;4979312;28;20434;-90
2021/03/20 09:37:46;;;;;;;3.33;2.23;;;;;;;0.58;56.08;151518.59;4978977;28;20837;-90
2021/03/20 09:40:50;;;;;;;6.23;3.90;;;;;;;0.74;58.07;151558.38;4964154;28;20449;-92
2021/03/20 09:43:45;;;;;;;4.57;2.93;;;;;;;0.50;57.13;151498.03;4978519;28;20437;-88
2021/03/20 09:46:55;;;;;;;4.37;3.17;;;;;;;0.55;57.27;151510.88;4979557;28;20535;-90
2021/03/20 09:49:59;;;;;;;3.70;3.40;;;;;;;0.75;59.26;151560.91;4987615;28;20480;-90
2021/03/20 09:52:50;;;;;;;3.37;2.70;;;;;;;0.54;57.27;151508.28;4989726;28;20432;-89
2021/03/20 09:55:45;;;;;;;4.03;2.97;;;;;;;0.36;59.21;151463.38;4974406;28;20801;-89
2021/03/20 09:58:41;;;;;;;4.00;2.57;;;;;;;0.50;58.15;151499.28;4978962;28;20477;-88
2021/03/20 10:01:45;;;;;;;5.53;3.70;;;;;;;0.63;58.40;151530.13;4992378;28;20473;-89
2021/03/20 10:04:33;;;;;;;2.75;2.40;;;;;;;0.48;56.90;151494.16;4981604;28;20885;-89
2021/03/20 10:07:32;;;;;;;5.77;2.70;;;;;;;0.61;56.20;151527.53;4993902;28;20685;-89
2021/03/20 10:10:44;;;;;;;4.23;3.00;;;;;;;0.71;56.69;151551.97;4970719;28;20452;-90
2021/03/20 10:13:23;;;;;;;2.90;2.60;;;;;;;0.86;57.77;151589.19;4991206;28;20435;-89
2021/03/20 10:16:02;;;;;;;3.50;2.87;;;;;;;1.02;63.76;151631.56;4981168;28;20808;-89
2021/03/20 10:19:09;;;;;;;4.25;2.90;;;;;;;1.19;61.70;151675.22;4981743;28;20445;-91
2021/03/20 10:21:46;;;;;;;3.43;2.60;;;;;;;1.25;56.80;151689.34;4976610;28;20224;-91
2021/03/20 10:24:26;;;;;;;3.13;2.83;;;;;;;1.22;57.15;151682.94;4982164;28;20436;-90
2021/03/20 10:27:04;;;;;;;3.80;2.80;;;;;;;1.12;52.97;151657.25;4997211;28;20524;-91
2021/03/20 10:29:40;;;;;;;4.00;2.23;;;;;;;1.17;55.50;151670.09;4981591;28;20469;-91
2021/03/20 10:32:20;;;;;;;4.30;2.30;;;;;;;1.55;52.06;151765.16;4981720;28;20466;-88
2021/03/20 10:34:57;;;;;;;3.97;2.60;;;;;;;1.23;50.02;151685.53;4981112;28;20448;-89
2021/03/20 10:37:35;;;;;;;3.97;2.77;;;;;;;1.28;49.95;151697.06;4973917;28;20207;-89
2021/03/20 10:40:13;;;;;;;3.90;3.00;;;;;;;1.16;52.09;151666.25;4977000;28;20456;-89
2021/03/20 10:42:52;;;;;;;3.00;2.50;;;;;;;0.79;47.99;151572.50;4980354;28;20960;-90
2021/03/20 10:45:31;;;;;;;2.53;2.20;;;;;;;0.84;50.25;151585.34;4981395;28;20452;-92
2021/03/20 10:48:15;;;;;;;2.92;2.35;;;;;;;0.75;51.38;151562.22;4972783;28;20527;-90
2021/03/20 10:50:57;;;;;;;3.87;2.60;;;;;;;0.91;53.32;151602.00;5001809;28;20558;-90
2021/03/20 10:53:38;;;;;;;2.70;2.50;;;;;;;1.05;53.01;151639.28;4969592;28;20445;-89
2021/03/20 10:56:31;;;;;;;2.73;2.43;;;;;;;1.19;52.79;151675.22;4995008;28;20478;-90
2021/03/20 10:59:16;;;;;;;2.60;2.20;;;;;;;0.97;50.17;151617.44;4994077;28;20437;-90
2021/03/20 11:01:51;;;;;;;3.85;2.00;;;;;;;0.74;51.00;151559.66;4983442;28;20469;-91
2021/03/20 11:04:30;;;;;;;3.90;2.30;;;;;;;0.66;49.29;151539.13;4985601;28;20238;-92
2021/03/20 11:07:14;;;;;;;4.50;2.40;;;;;;;0.56;49.23;151514.69;4999440;28;20852;-92
2021/03/20 11:09:50;;;;;;;2.80;2.10;;;;;;;0.62;50.38;151528.81;4981422;28;20483;-91
2021/03/20 11:12:28;;;;;;;3.43;2.20;;;;;;;0.55;49.38;151510.88;4985724;28;20441;-91
2021/03/20 11:15:05;;;;;;;4.20;2.43;;;;;;;0.78;48.99;151568.63;5001028;28;20426;-92
2021/03/20 11:17:40;;;;;;;3.03;1.90;;;;;;;0.81;49.33;151577.63;5009056;28;20530;-91
2021/03/20 11:20:20;;;;;;;2.53;2.10;;;;;;;0.68;48.83;151542.97;5018576;28;20451;-89
2021/03/20 11:22:56;;;;;;;2.87;2.20;;;;;;;0.68;50.66;151542.97;5008976;28;20991;-91
2021/03/20 11:25:35;;;;;;;3.53;2.33;;;;;;;0.56;48.42;151513.41;4986737;28;20543;-90
2021/03/20 11:28:15;;;;;;;2.60;1.90;;;;;;;0.62;50.01;151528.81;4985657;28;20452;-90
2021/03/20 11:30:55;;;;;;;3.20;2.47;;;;;;;0.61;50.61;151526.25;4983647;28;20487;-90
2021/03/20 11:33:35;;;;;;;3.87;2.53;;;;;;;0.79;51.58;151571.22;4979867;28;20452;-90
2021/03/20 11:36:16;;;;;;;2.70;2.00;;;;;;;0.83;49.84;151582.75;4994233;28;20455;-90
2021/03/20 11:38:56;;;;;;;3.10;2.80;;;;;;;0.94;49.89;151609.72;5011515;28;20532;-90
2021/03/20 11:41:38;;;;;;;4.60;2.67;;;;;;;0.96;51.54;151616.16;4965573;28;20862;-90
2021/03/20 11:44:24;;;;;;;4.00;2.73;;;;;;;0.92;49.80;151604.59;4983059;28;20235;-90
2021/03/20 11:47:01;;;;;;;4.10;2.50;;;;;;;1.02;52.59;151631.56;4980666;28;20795;-90
2021/03/20 11:49:47;;;;;;;3.20;2.83;;;;;;;1.14;51.58;151661.09;4990287;28;20904;-91
2021/03/20 11:52:27;;;;;;;4.00;2.63;;;;;;;1.14;55.62;151662.38;4981528;28;20442;-82
2021/03/20 11:55:05;;;;;;;3.80;2.57;;;;;;;0.94;50.42;151611.03;4983679;28;20448;-82
2021/03/20 11:57:42;;;;;;;2.77;2.50;;;;;;;1.11;51.71;151654.66;4996271;28;20911;-82
2021/03/20 12:00:48;;;;;;;3.20;2.87;;;;;;;0.74;50.66;151558.38;4998565;28;20806;-82
2021/03/20 12:03:35;;;;;;;3.23;2.77;;;;;;;0.80;56.89;151573.75;4920382;29;20487;-82
2021/03/20 12:06:29;;;;;;;3.90;3.40;;;;;;;1.00;57.23;151626.44;5001639;28;20909;-82
2021/03/20 12:09:33;;;;;;;3.00;2.67;;;;;;;1.32;51.62;151707.38;4975305;28;20459;-83
2021/03/20 12:12:09;;;;;;;3.70;2.90;;;;;;;1.48;54.31;151748.50;4971179;28;20436;-82
2021/03/20 12:14:45;;;;;;;3.72;3.33;;;;;;;1.37;53.15;151718.91;4985023;28;20441;-82
2021/03/20 12:17:23;;;;;;;3.80;3.50;;;;;;;1.42;53.15;151731.75;4984125;28;20615;-82
2021/03/20 12:20:04;;;;;;;4.50;3.40;;;;;;;1.41;52.82;151730.47;4985888;28;20437;-83
2021/03/20 12:22:44;;;;;;;5.30;3.60;;;;;;;1.46;52.31;151742.00;4978919;28;20503;-82
2021/03/20 12:25:28;;;;;;;7.88;3.28;;;;;;;1.35;51.45;151715.03;4979874;28;20445;-82
2021/03/20 12:28:25;;;;;;;7.70;3.60;;;;;;;1.27;53.14;151693.22;4992657;28;20204;-82
2021/03/20 12:31:22;;;;;;;5.93;3.73;;;;;;;1.28;51.84;151695.78;4971955;28;20507;-82
2021/03/20 12:34:00;;;;;;;4.67;3.43;;;;;;;1.34;57.89;151711.19;4985355;28;20457;-82
2021/03/20 12:36:41;;;;;;;4.00;2.80;;;;;;;1.37;53.37;151720.22;4990698;28;20447;-83
2021/03/20 12:39:19;;;;;;;7.33;3.60;;;;;;;1.43;51.34;151735.59;4979899;28;20446;-83
2021/03/20 12:41:56;;;;;;;4.47;3.37;;;;;;;1.23;50.48;151685.53;4977980;28;20461;-82
2021/03/20 12:44:41;;;;;;;4.00;2.77;;;;;;;1.30;50.41;151702.19;4972499;28;20442;-83
2021/03/20 12:47:18;;;;;;;4.05;2.90;;;;;;;1.20;50.29;151677.81;4976751;28;20445;-82
2021/03/20 12:49:54;;;;;;;4.70;3.43;;;;;;;1.45;51.93;151739.47;4974968;28;20604;-82